createdAt,value
2024-05-09T00:00:29.926Z,68.39
2024-05-09T00:03:32.536Z,68.29
2024-05-09T00:06:30.027Z,68.21
2024-05-09T00:09:27.483Z,68.21
2024-05-09T00:12:24.753Z,68.19
2024-05-09T00:15:22.447Z,68.13
2024-05-09T00:18:19.944Z,68.06
2024-05-09T00:21:17.492Z,68.10
2024-05-09T00:24:14.712Z,68.08
2024-05-09T00:27:13.439Z,68.01
2024-05-09T00:30:17.451Z,67.94
2024-05-09T00:33:18.985Z,67.87
2024-05-09T00:36:16.710Z,67.83
2024-05-09T00:39:13.875Z,67.76
2024-05-09T00:42:11.332Z,67.77
2024-05-09T00:45:08.510Z,67.76
2024-05-09T00:48:08.026Z,67.61
2024-05-09T00:51:06.787Z,67.57
2024-05-09T00:54:05.543Z,67.56
2024-05-09T00:57:02.917Z,67.53
2024-05-09T01:00:00.123Z,67.53
2024-05-09T01:02:57.660Z,67.37
2024-05-09T01:05:55.162Z,67.22
2024-05-09T01:08:52.666Z,67.20
2024-05-09T01:11:50.180Z,67.17
2024-05-09T01:14:47.559Z,67.07
2024-05-09T01:17:46.328Z,67.04
2024-05-09T01:20:45.224Z,66.85
2024-05-09T01:23:43.052Z,66.85
2024-05-09T01:26:40.303Z,66.57
2024-05-09T01:29:37.722Z,66.38
2024-05-09T01:32:35.467Z,66.38
2024-05-09T01:35:32.777Z,66.43
2024-05-09T01:38:30.495Z,66.35
2024-05-09T01:41:27.951Z,66.33
2024-05-09T01:44:25.955Z,66.17
2024-05-09T01:47:23.563Z,66.22
2024-05-09T01:50:33.043Z,66.22
2024-05-09T01:53:34.788Z,66.18
2024-05-09T01:56:32.378Z,66.18
2024-05-09T01:59:29.578Z,66.10
2024-05-09T02:02:27.145Z,66.07
2024-05-09T02:05:24.865Z,65.87
2024-05-09T02:08:22.419Z,65.92
2024-05-09T02:11:20.097Z,65.88
2024-05-09T02:14:17.326Z,65.83
2024-05-09T02:17:14.903Z,65.85
2024-05-09T02:20:18.840Z,65.92
2024-05-09T02:23:24.706Z,65.95
2024-05-09T02:26:22.422Z,66.02
2024-05-09T02:29:19.832Z,65.91
2024-05-09T02:32:17.471Z,65.88
2024-05-09T02:35:14.730Z,65.91
2024-05-09T02:38:12.514Z,65.76
2024-05-09T02:41:10.326Z,65.71
2024-05-09T02:44:07.604Z,65.64
2024-05-09T02:47:05.117Z,65.54
2024-05-09T02:50:02.487Z,65.47
2024-05-09T02:52:59.972Z,65.39
2024-05-09T02:55:57.202Z,65.40
2024-05-09T02:58:54.748Z,65.33
2024-05-09T03:01:52.441Z,65.29
2024-05-09T03:04:49.755Z,65.32
2024-05-09T03:07:47.380Z,65.21
2024-05-09T03:10:44.574Z,65.16
2024-05-09T03:13:41.969Z,65.18
2024-05-09T03:16:39.146Z,65.23
2024-05-09T03:19:36.676Z,65.27
2024-05-09T03:22:34.099Z,65.36
2024-05-09T03:25:31.352Z,65.41
2024-05-09T03:28:28.732Z,65.33
2024-05-09T03:31:25.959Z,65.41
2024-05-09T03:34:23.482Z,65.51
2024-05-09T03:37:20.691Z,65.64
2024-05-09T03:40:23.488Z,65.74
2024-05-09T03:43:23.614Z,65.80
2024-05-09T03:46:20.826Z,65.92
2024-05-09T03:49:19.043Z,65.80
2024-05-09T03:52:16.341Z,65.90
2024-05-09T03:55:13.774Z,66.00
2024-05-09T03:58:13.171Z,65.96
2024-05-09T04:01:10.438Z,65.88
2024-05-09T04:04:09.078Z,65.84
2024-05-09T04:07:06.573Z,65.96
2024-05-09T04:10:05.243Z,65.94
2024-05-09T04:13:03.037Z,65.96
2024-05-09T04:16:00.865Z,65.89
2024-05-09T04:18:58.399Z,65.83
2024-05-09T04:21:55.666Z,65.80
2024-05-09T04:24:53.549Z,65.74
2024-05-09T04:27:55.472Z,65.85
2024-05-09T04:30:52.850Z,65.74
2024-05-09T04:33:50.168Z,65.72
2024-05-09T04:36:47.827Z,65.52
2024-05-09T04:39:45.191Z,65.36
2024-05-09T04:42:42.377Z,65.27
2024-05-09T04:45:39.726Z,65.09
2024-05-09T04:48:37.017Z,65.04
2024-05-09T04:51:34.589Z,64.90
2024-05-09T04:54:36.258Z,64.59
2024-05-09T04:57:34.095Z,64.47
2024-05-09T05:00:36.288Z,64.31
2024-05-09T05:03:35.610Z,64.36
2024-05-09T05:06:33.371Z,64.18
2024-05-09T05:09:30.545Z,64.19
2024-05-09T05:12:46.095Z,64.10
2024-05-09T05:15:43.422Z,64.09
2024-05-09T05:18:40.672Z,63.96
2024-05-09T05:21:38.122Z,63.97
2024-05-09T05:24:35.288Z,63.59
2024-05-09T05:27:32.643Z,63.28
2024-05-09T05:30:34.474Z,62.84
2024-05-09T05:33:32.825Z,62.79
2024-05-09T05:36:30.390Z,62.18
2024-05-09T05:39:27.594Z,62.37
2024-05-09T05:42:25.006Z,62.39
2024-05-09T05:45:22.203Z,61.66
2024-05-09T05:48:19.897Z,61.55
2024-05-09T05:51:17.718Z,61.61
2024-05-09T05:54:15.085Z,61.45
2024-05-09T05:57:13.840Z,61.24
2024-05-09T06:00:17.981Z,61.16
2024-05-09T06:03:19.148Z,60.70
2024-05-09T06:06:16.346Z,60.59
2024-05-09T06:09:13.814Z,60.17
2024-05-09T06:12:11.406Z,60.20
2024-05-09T06:15:08.718Z,60.04
2024-05-09T06:18:06.352Z,59.63
2024-05-09T06:21:03.844Z,59.23
2024-05-09T06:24:03.786Z,58.47
2024-05-09T06:27:04.193Z,57.98
2024-05-09T06:30:01.379Z,57.88
2024-05-09T06:32:59.042Z,57.31
2024-05-09T06:35:59.286Z,56.68
2024-05-09T06:38:56.810Z,56.80
2024-05-09T06:41:54.010Z,55.95
2024-05-09T06:44:51.525Z,55.81
2024-05-09T06:47:49.020Z,55.16
2024-05-09T06:50:46.461Z,54.69
2024-05-09T06:53:43.974Z,54.17
2024-05-09T06:56:41.214Z,53.13
2024-05-09T06:59:38.767Z,53.06
2024-05-09T07:02:36.255Z,52.82
2024-05-09T07:05:34.044Z,52.44
2024-05-09T07:08:31.728Z,51.82
2024-05-09T07:11:31.130Z,51.37
2024-05-09T07:14:29.142Z,51.33
2024-05-09T07:17:26.553Z,51.28
2024-05-09T07:20:32.285Z,50.96
2024-05-09T07:23:32.414Z,51.73
2024-05-09T07:26:29.715Z,50.68
2024-05-09T07:29:27.353Z,50.57
2024-05-09T07:32:24.700Z,50.00
2024-05-09T07:35:22.507Z,49.43
2024-05-09T07:38:19.905Z,48.07
2024-05-09T07:41:17.651Z,47.55
2024-05-09T07:44:15.149Z,47.76
2024-05-09T07:48:27.673Z,47.27
2024-05-09T07:53:40.293Z,46.27
2024-05-09T07:56:42.059Z,45.42
2024-05-09T07:59:39.375Z,44.87
2024-05-09T08:02:36.998Z,44.98
2024-05-09T08:05:34.765Z,44.48
2024-05-09T08:08:32.089Z,44.02
2024-05-09T08:11:29.627Z,44.26
2024-05-09T08:14:26.798Z,43.12
2024-05-09T08:17:24.449Z,42.54
2024-05-09T08:20:30.270Z,42.14
2024-05-09T08:23:28.995Z,41.88
2024-05-09T08:26:26.534Z,41.51
2024-05-09T08:29:23.723Z,41.16
2024-05-09T08:32:21.296Z,40.28
2024-05-09T08:35:18.508Z,39.31
2024-05-09T08:38:15.986Z,38.65
2024-05-09T08:41:13.354Z,38.78
2024-05-09T08:44:10.599Z,38.25
2024-05-09T08:47:09.988Z,37.69
2024-05-09T08:50:10.943Z,35.29
2024-05-09T08:53:11.237Z,35.88
2024-05-09T08:56:08.652Z,36.01
2024-05-09T08:59:05.810Z,35.63
2024-05-09T09:02:03.251Z,35.42
2024-05-09T09:05:00.649Z,35.26
2024-05-09T09:07:58.337Z,34.62
2024-05-09T09:10:55.562Z,34.40
2024-05-09T09:13:53.023Z,33.23
2024-05-09T09:16:51.822Z,32.55
2024-05-09T09:19:49.090Z,33.44
2024-05-09T09:22:46.529Z,32.56
2024-05-09T09:25:43.728Z,32.35
2024-05-09T09:28:41.639Z,31.50
2024-05-09T09:31:39.127Z,30.91
2024-05-09T09:34:36.935Z,32.00
2024-05-09T09:37:36.101Z,30.91
2024-05-09T09:40:35.839Z,30.56
2024-05-09T09:43:35.973Z,30.63
2024-05-09T09:46:33.195Z,30.01
2024-05-09T09:49:31.659Z,28.63
2024-05-09T09:52:29.011Z,27.69
2024-05-09T09:55:26.469Z,26.93
2024-05-09T09:58:24.164Z,26.27
2024-05-09T10:01:21.565Z,27.00
2024-05-09T10:04:19.492Z,26.80
2024-05-09T10:07:16.835Z,26.59
2024-05-09T10:10:16.600Z,25.85
2024-05-09T10:13:18.171Z,25.69
2024-05-09T10:16:15.714Z,26.96
2024-05-09T10:19:13.310Z,27.07
2024-05-09T10:22:10.829Z,25.23
2024-05-09T10:25:08.403Z,25.07
2024-05-09T10:28:05.637Z,24.93
2024-05-09T10:31:03.251Z,24.80
2024-05-09T10:34:02.727Z,24.77
2024-05-09T10:37:01.422Z,24.12
2024-05-09T10:39:59.590Z,24.30
2024-05-09T10:42:57.162Z,23.99
2024-05-09T10:45:54.897Z,24.45
2024-05-09T10:48:52.242Z,24.25
2024-05-09T10:51:50.812Z,24.26
2024-05-09T10:54:48.236Z,23.41
2024-05-09T10:57:45.777Z,23.23
2024-05-09T11:00:43.469Z,22.47
2024-05-09T11:03:41.003Z,22.80
2024-05-09T11:06:38.735Z,22.37
2024-05-09T11:09:36.102Z,23.37
2024-05-09T11:12:33.737Z,23.22
2024-05-09T11:15:30.971Z,22.80
2024-05-09T11:18:30.800Z,22.09
2024-05-09T11:21:31.424Z,21.86
2024-05-09T11:24:28.642Z,22.42
2024-05-09T11:27:26.196Z,22.67
2024-05-09T11:30:29.794Z,22.50
2024-05-09T11:33:29.651Z,22.02
2024-05-09T11:36:27.317Z,21.85
2024-05-09T11:39:24.661Z,21.90
2024-05-09T11:42:22.595Z,21.91
2024-05-09T11:45:19.851Z,22.21
2024-05-09T11:48:17.397Z,22.24
2024-05-09T11:51:14.928Z,22.20
2024-05-09T11:54:12.111Z,21.99
2024-05-09T11:57:10.420Z,22.12
2024-05-09T12:00:09.620Z,21.54
2024-05-09T12:03:09.384Z,21.53
2024-05-09T12:06:06.853Z,22.06
2024-05-09T12:09:04.446Z,21.78
2024-05-09T12:12:01.789Z,21.82
2024-05-09T12:14:59.271Z,21.42
2024-05-09T12:17:59.015Z,21.51
2024-05-09T12:20:58.703Z,21.83
2024-05-09T12:23:56.403Z,21.83
2024-05-09T12:26:53.580Z,21.72
2024-05-09T12:29:51.040Z,21.78
2024-05-09T12:32:48.579Z,21.56
2024-05-09T12:35:48.168Z,22.24
2024-05-09T12:38:47.294Z,22.05
2024-05-09T12:41:44.806Z,21.83
2024-05-09T12:44:41.963Z,22.06
2024-05-09T12:47:39.490Z,22.07
2024-05-09T12:50:37.247Z,22.36
2024-05-09T12:53:34.498Z,22.19
2024-05-09T12:56:33.589Z,22.03
2024-05-09T12:59:30.790Z,21.73
2024-05-09T13:02:28.419Z,21.86
2024-05-09T13:05:25.907Z,21.79
2024-05-09T13:08:23.587Z,22.12
2024-05-09T13:11:20.818Z,21.81
2024-05-09T13:14:18.327Z,22.40
2024-05-09T13:17:15.887Z,22.45
2024-05-09T13:20:22.332Z,22.37
2024-05-09T13:23:23.655Z,22.41
2024-05-09T13:26:20.883Z,22.99
2024-05-09T13:29:18.442Z,22.76
2024-05-09T13:32:15.658Z,23.19
2024-05-09T13:35:13.145Z,23.10
2024-05-09T13:38:10.540Z,23.22
2024-05-09T13:41:08.362Z,23.40
2024-05-09T13:44:05.821Z,23.65
2024-05-09T13:47:03.047Z,23.57
2024-05-09T13:50:00.474Z,23.33
2024-05-09T13:52:57.649Z,23.37
2024-05-09T13:55:55.139Z,23.25
2024-05-09T13:58:52.336Z,23.57
2024-05-09T14:01:49.968Z,23.48
2024-05-09T14:04:47.415Z,23.64
2024-05-09T14:07:45.006Z,23.69
2024-05-09T14:10:44.306Z,23.60
2024-05-09T14:13:42.268Z,23.82
2024-05-09T14:16:39.681Z,23.93
2024-05-09T14:19:37.300Z,24.19
2024-05-09T14:22:35.366Z,24.19
2024-05-09T14:25:36.605Z,24.23
2024-05-09T14:28:36.209Z,24.05
2024-05-09T14:31:35.457Z,24.32
2024-05-09T14:34:33.947Z,24.57
2024-05-09T14:37:31.232Z,24.55
2024-05-09T14:40:38.941Z,24.15
2024-05-09T14:43:40.354Z,24.22
2024-05-09T14:46:37.866Z,24.04
2024-05-09T14:49:35.339Z,24.21
2024-05-09T14:52:32.690Z,24.33
2024-05-09T14:55:30.615Z,24.34
2024-05-09T14:58:28.004Z,24.51
2024-05-09T15:01:25.555Z,24.43
2024-05-09T15:04:22.860Z,24.30
2024-05-09T15:07:20.492Z,24.29
2024-05-09T15:10:26.493Z,24.48
2024-05-09T15:13:31.161Z,24.76
2024-05-09T15:16:28.650Z,25.26
2024-05-09T15:19:26.034Z,25.26
2024-05-09T15:22:23.776Z,25.11
2024-05-09T15:25:21.007Z,25.27
2024-05-09T15:28:18.812Z,25.36
2024-05-09T15:31:16.177Z,25.38
2024-05-09T15:34:13.754Z,25.51
2024-05-09T15:37:10.986Z,25.66
2024-05-09T15:40:15.376Z,25.64
2024-05-09T15:43:19.576Z,25.90
2024-05-09T15:46:16.887Z,25.90
2024-05-09T15:49:14.645Z,26.41
2024-05-09T15:52:12.184Z,26.24
2024-05-09T15:55:10.971Z,26.41
2024-05-09T15:58:08.499Z,26.24
2024-05-09T16:01:06.250Z,26.20
2024-05-09T16:04:03.964Z,26.38
2024-05-09T16:07:01.390Z,26.61
2024-05-09T16:09:59.231Z,26.83
2024-05-09T16:12:56.907Z,26.57
2024-05-09T16:15:54.708Z,26.68
2024-05-09T16:18:52.065Z,26.86
2024-05-09T16:21:49.506Z,26.82
2024-05-09T16:24:46.823Z,26.95
2024-05-09T16:27:44.319Z,27.22
2024-05-09T16:30:41.877Z,27.50
2024-05-09T16:33:40.298Z,27.92
2024-05-09T16:36:38.129Z,28.13
2024-05-09T16:39:35.316Z,28.43
2024-05-09T16:42:32.699Z,28.68
2024-05-09T16:45:30.284Z,28.49
2024-05-09T16:48:27.628Z,28.75
2024-05-09T16:51:26.014Z,28.78
2024-05-09T16:54:23.201Z,29.41
2024-05-09T16:57:20.605Z,29.70
2024-05-09T17:00:22.667Z,29.76
2024-05-09T17:03:28.962Z,29.76
2024-05-09T17:06:26.418Z,30.36
2024-05-09T17:09:23.581Z,30.34
2024-05-09T17:12:21.053Z,30.54
2024-05-09T17:15:18.270Z,30.73
2024-05-09T17:18:15.947Z,31.18
2024-05-09T17:21:13.631Z,31.57
2024-05-09T17:24:10.854Z,31.92
2024-05-09T17:27:08.251Z,32.07
2024-05-09T17:30:06.391Z,32.45
2024-05-09T17:33:05.723Z,32.84
2024-05-09T17:36:03.108Z,33.14
2024-05-09T17:39:00.520Z,33.62
2024-05-09T17:41:57.700Z,33.81
2024-05-09T17:44:55.039Z,33.91
2024-05-09T17:47:52.435Z,34.52
2024-05-09T17:50:51.617Z,34.92
2024-05-09T17:53:49.876Z,35.42
2024-05-09T17:56:47.085Z,36.00
2024-05-09T17:59:44.862Z,36.42
2024-05-09T18:02:42.744Z,36.84
2024-05-09T18:05:40.416Z,37.38
2024-05-09T18:08:37.755Z,37.64
2024-05-09T18:11:35.283Z,37.92
2024-05-09T18:14:32.658Z,38.23
2024-05-09T18:17:30.027Z,38.61
2024-05-09T18:20:37.610Z,38.85
2024-05-09T18:23:40.393Z,39.03
2024-05-09T18:26:38.016Z,39.41
2024-05-09T18:29:35.200Z,39.62
2024-05-09T18:32:32.767Z,39.90
2024-05-09T18:35:30.141Z,40.20
2024-05-09T18:38:27.661Z,40.51
2024-05-09T18:41:25.224Z,40.80
2024-05-09T18:44:22.381Z,41.05
2024-05-09T18:47:20.612Z,41.35
2024-05-09T18:50:28.241Z,41.71
2024-05-09T18:53:32.161Z,41.82
2024-05-09T18:56:29.364Z,42.13
2024-05-09T18:59:26.967Z,42.30
2024-05-09T19:02:24.385Z,42.58
2024-05-09T19:05:22.221Z,42.91
2024-05-09T19:08:19.609Z,42.88
2024-05-09T19:11:17.796Z,43.06
2024-05-09T19:14:15.164Z,43.22
2024-05-09T19:17:12.342Z,43.30
2024-05-09T19:20:20.206Z,43.40
2024-05-09T19:23:22.860Z,43.39
2024-05-09T19:26:21.114Z,43.67
2024-05-09T19:29:18.554Z,43.72
2024-05-09T19:32:15.743Z,43.80
2024-05-09T19:35:13.265Z,43.82
2024-05-09T19:38:10.442Z,43.91
2024-05-09T19:41:07.873Z,43.85
2024-05-09T19:44:05.351Z,43.87
2024-05-09T19:47:02.572Z,43.93
2024-05-09T19:50:00.230Z,43.93
2024-05-09T19:52:57.654Z,44.18
2024-05-09T19:55:55.806Z,44.14
2024-05-09T19:58:52.981Z,43.99
2024-05-09T20:01:50.649Z,44.07
2024-05-09T20:04:49.057Z,44.04
2024-05-09T20:07:46.317Z,44.02
2024-05-09T20:10:43.932Z,44.24
2024-05-09T20:13:41.236Z,44.15
2024-05-09T20:16:38.749Z,44.18
2024-05-09T20:19:36.024Z,44.10
2024-05-09T20:22:33.663Z,44.04
2024-05-09T20:25:31.127Z,43.97
2024-05-09T20:28:28.597Z,43.87
2024-05-09T20:31:26.413Z,43.86
2024-05-09T20:34:23.787Z,43.87
2024-05-09T20:37:21.590Z,43.86
2024-05-09T20:40:25.775Z,43.90
2024-05-09T20:43:28.973Z,43.97
2024-05-09T20:46:26.534Z,44.01
2024-05-09T20:49:24.442Z,44.01
2024-05-09T20:52:22.257Z,44.08
2024-05-09T20:55:20.703Z,44.14
2024-05-09T20:58:18.128Z,44.22
2024-05-09T21:01:15.456Z,44.42
2024-05-09T21:04:13.272Z,44.41
2024-05-09T21:07:11.041Z,44.54
2024-05-09T21:10:15.468Z,44.66
2024-05-09T21:13:17.084Z,44.67
2024-05-09T21:16:14.376Z,44.81
2024-05-09T21:19:12.323Z,44.94
2024-05-09T21:22:09.652Z,45.21
2024-05-09T21:25:07.037Z,45.50
2024-05-09T21:28:04.384Z,45.78
2024-05-09T21:31:01.874Z,45.96
2024-05-09T21:33:59.207Z,46.18
2024-05-09T21:36:57.308Z,46.31
2024-05-09T21:39:54.662Z,46.39
2024-05-09T21:42:52.137Z,46.46
2024-05-09T21:45:49.564Z,46.65
2024-05-09T21:48:46.872Z,47.00
2024-05-09T21:51:44.456Z,47.21
2024-05-09T21:54:41.732Z,47.37
2024-05-09T21:57:39.164Z,47.75
2024-05-09T22:00:39.242Z,48.10
2024-05-09T22:03:36.982Z,48.11
2024-05-09T22:06:34.574Z,48.44
2024-05-09T22:09:31.923Z,48.59
2024-05-09T22:12:29.305Z,48.93
2024-05-09T22:15:26.871Z,48.98
2024-05-09T22:18:24.345Z,49.19
2024-05-09T22:21:21.823Z,49.42
2024-05-09T22:24:19.237Z,49.75
2024-05-09T22:27:16.604Z,50.01
2024-05-09T22:30:21.214Z,50.41
2024-05-09T22:33:24.702Z,50.57
2024-05-09T22:36:21.887Z,50.98
2024-05-09T22:39:19.320Z,51.25
2024-05-09T22:42:16.498Z,51.45
2024-05-09T22:45:13.847Z,51.66
2024-05-09T22:48:11.134Z,51.88
2024-05-09T22:51:08.647Z,52.09
2024-05-09T22:54:06.118Z,52.33
2024-05-09T22:57:03.296Z,52.39
2024-05-09T23:00:00.663Z,52.68
2024-05-09T23:02:57.957Z,52.89
2024-05-09T23:05:55.427Z,53.06
2024-05-09T23:08:52.683Z,53.31
2024-05-09T23:11:50.200Z,53.37
2024-05-09T23:14:47.451Z,53.44
2024-05-09T23:17:45.180Z,53.71
2024-05-09T23:20:42.947Z,53.91
2024-05-09T23:23:40.158Z,54.14
2024-05-09T23:26:37.498Z,54.28
2024-05-09T23:29:34.696Z,54.41
2024-05-09T23:32:32.325Z,54.56
2024-05-09T23:35:29.545Z,54.74
2024-05-09T23:38:27.086Z,54.96
2024-05-09T23:41:24.408Z,55.08
2024-05-09T23:44:21.569Z,55.20
2024-05-09T23:47:19.104Z,55.32
2024-05-09T23:50:20.702Z,55.47
2024-05-09T23:53:23.913Z,55.54
2024-05-09T23:56:21.792Z,55.68
2024-05-09T23:59:19.336Z,55.75
